sensor_id;sensor_type;location;lat;lon;timestamp;temperature;humidity
15900;DHT22;8048;50.644;6.184;2024-03-23T00:53:44;8.40;99.90
15900;DHT22;8048;50.644;6.184;2024-03-23T00:56:09;8.20;99.90
15900;DHT22;8048;50.644;6.184;2024-03-23T00:58:35;8.20;99.90
15900;DHT22;8048;50.644;6.184;2024-03-23T01:01:01;8.30;99.90
15900;DHT22;8048;50.644;6.184;2024-03-23T01:03:29;8.20;99.90
15900;DHT22;8048;50.644;6.184;2024-03-23T01:05:54;8.10;99.90
15900;DHT22;8048;50.644;6.184;2024-03-23T01:08:20;8.00;99.90
15900;DHT22;8048;50.644;6.184;2024-03-23T01:11:01;7.90;99.90
15900;DHT22;8048;50.644;6.184;2024-03-23T01:13:28;7.80;99.90
15900;DHT22;8048;50.644;6.184;2024-03-23T01:15:55;7.80;99.90
15900;DHT22;8048;50.644;6.184;2024-03-23T01:18:22;7.80;99.90
15900;DHT22;8048;50.644;6.184;2024-03-23T01:20:47;7.70;99.90
15900;DHT22;8048;50.644;6.184;2024-03-23T01:23:14;7.60;99.90
15900;DHT22;8048;50.644;6.184;2024-03-23T01:25:39;7.70;99.90
15900;DHT22;8048;50.644;6.184;2024-03-23T01:28:05;7.70;99.90
15900;DHT22;8048;50.644;6.184;2024-03-23T01:30:35;7.70;99.90
15900;DHT22;8048;50.644;6.184;2024-03-23T01:33:01;7.70;99.90
15900;DHT22;8048;50.644;6.184;2024-03-23T01:35:28;7.70;99.90
15900;DHT22;8048;50.644;6.184;2024-03-23T01:37:53;7.70;99.90
15900;DHT22;8048;50.644;6.184;2024-03-23T01:40:19;7.70;99.90
15900;DHT22;8048;50.644;6.184;2024-03-23T01:42:58;7.70;99.90
15900;DHT22;8048;50.644;6.184;2024-03-23T01:45:23;7.70;99.90
15900;DHT22;8048;50.644;6.184;2024-03-23T01:47:51;7.70;99.90
15900;DHT22;8048;50.644;6.184;2024-03-23T01:50:17;7.60;99.90
15900;DHT22;8048;50.644;6.184;2024-03-23T01:52:42;7.60;99.90
15900;DHT22;8048;50.644;6.184;2024-03-23T01:55:08;7.60;99.90
15900;DHT22;8048;50.644;6.184;2024-03-23T01:57:34;7.50;99.90
15900;DHT22;8048;50.644;6.184;2024-03-23T02:00:00;7.40;99.90
15900;DHT22;8048;50.644;6.184;2024-03-23T02:02:25;7.40;99.90
15900;DHT22;8048;50.644;6.184;2024-03-23T02:04:51;7.40;99.90
15900;DHT22;8048;50.644;6.184;2024-03-23T02:07:16;7.40;99.90
15900;DHT22;8048;50.644;6.184;2024-03-23T02:09:43;7.40;99.90
15900;DHT22;8048;50.644;6.184;2024-03-23T02:12:09;7.30;99.90
15900;DHT22;8048;50.644;6.184;2024-03-23T02:14:35;7.20;99.90
15900;DHT22;8048;50.644;6.184;2024-03-23T02:17:00;7.10;99.90
15900;DHT22;8048;50.644;6.184;2024-03-23T02:19:26;7.00;99.90
15900;DHT22;8048;50.644;6.184;2024-03-23T02:21:51;6.90;99.90
15900;DHT22;8048;50.644;6.184;2024-03-23T02:24:17;6.90;99.90
15900;DHT22;8048;50.644;6.184;2024-03-23T02:26:42;6.90;99.90
15900;DHT22;8048;50.644;6.184;2024-03-23T02:29:08;6.90;99.90
15900;DHT22;8048;50.644;6.184;2024-03-23T02:31:35;6.90;99.90
15900;DHT22;8048;50.644;6.184;2024-03-23T02:34:01;6.80;99.90
15900;DHT22;8048;50.644;6.184;2024-03-23T02:36:26;6.80;99.90
15900;DHT22;8048;50.644;6.184;2024-03-23T02:38:52;6.80;99.90
15900;DHT22;8048;50.644;6.184;2024-03-23T02:41:17;6.70;99.90
15900;DHT22;8048;50.644;6.184;2024-03-23T02:43:51;6.70;99.90
15900;DHT22;8048;50.644;6.184;2024-03-23T02:46:17;6.60;99.90
15900;DHT22;8048;50.644;6.184;2024-03-23T02:48:43;6.70;99.90
15900;DHT22;8048;50.644;6.184;2024-03-23T02:51:09;6.70;99.90
15900;DHT22;8048;50.644;6.184;2024-03-23T02:53:34;6.60;99.90
15900;DHT22;8048;50.644;6.184;2024-03-23T02:56:00;6.60;99.90
15900;DHT22;8048;50.644;6.184;2024-03-23T02:58:25;6.60;99.90
15900;DHT22;8048;50.644;6.184;2024-03-23T03:00:51;6.60;99.90
15900;DHT22;8048;50.644;6.184;2024-03-23T03:03:17;6.50;99.90
15900;DHT22;8048;50.644;6.184;2024-03-23T03:05:43;6.50;99.90
15900;DHT22;8048;50.644;6.184;2024-03-23T03:08:08;6.40;99.90
15900;DHT22;8048;50.644;6.184;2024-03-23T03:10:34;6.40;99.90
15900;DHT22;8048;50.644;6.184;2024-03-23T03:13:02;6.40;99.90
15900;DHT22;8048;50.644;6.184;2024-03-23T03:15:27;6.40;99.90
15900;DHT22;8048;50.644;6.184;2024-03-23T03:17:53;6.40;99.90
15900;DHT22;8048;50.644;6.184;2024-03-23T03:20:19;6.30;99.90
15900;DHT22;8048;50.644;6.184;2024-03-23T03:22:47;6.30;99.90
15900;DHT22;8048;50.644;6.184;2024-03-23T03:25:12;6.30;99.90
15900;DHT22;8048;50.644;6.184;2024-03-23T03:27:38;6.20;99.90
15900;DHT22;8048;50.644;6.184;2024-03-23T03:30:04;6.20;99.90
15900;DHT22;8048;50.644;6.184;2024-03-23T03:32:31;6.20;99.90
15900;DHT22;8048;50.644;6.184;2024-03-23T03:34:57;6.20;99.90
15900;DHT22;8048;50.644;6.184;2024-03-23T03:37:23;6.10;99.90
15900;DHT22;8048;50.644;6.184;2024-03-23T03:39:48;6.10;99.90
15900;DHT22;8048;50.644;6.184;2024-03-23T03:42:14;6.10;99.90
15900;DHT22;8048;50.644;6.184;2024-03-23T03:44:40;6.00;99.90
15900;DHT22;8048;50.644;6.184;2024-03-23T03:47:06;6.10;99.90
15900;DHT22;8048;50.644;6.184;2024-03-23T03:49:32;6.00;99.90
15900;DHT22;8048;50.644;6.184;2024-03-23T03:51:57;6.00;99.90
15900;DHT22;8048;50.644;6.184;2024-03-23T03:54:23;6.00;99.90
15900;DHT22;8048;50.644;6.184;2024-03-23T03:56:48;6.00;99.90
15900;DHT22;8048;50.644;6.184;2024-03-23T03:59:14;5.90;99.90
15900;DHT22;8048;50.644;6.184;2024-03-23T04:01:40;5.90;99.90
15900;DHT22;8048;50.644;6.184;2024-03-23T04:04:05;5.80;99.90
15900;DHT22;8048;50.644;6.184;2024-03-23T04:06:32;5.80;99.90
15900;DHT22;8048;50.644;6.184;2024-03-23T04:08:58;5.80;99.90
15900;DHT22;8048;50.644;6.184;2024-03-23T04:11:24;5.70;99.90
15900;DHT22;8048;50.644;6.184;2024-03-23T04:13:50;5.70;99.90
15900;DHT22;8048;50.644;6.184;2024-03-23T04:16:28;5.70;99.90
15900;DHT22;8048;50.644;6.184;2024-03-23T04:18:54;5.60;99.90
15900;DHT22;8048;50.644;6.184;2024-03-23T04:21:21;5.60;99.90
15900;DHT22;8048;50.644;6.184;2024-03-23T04:23:47;5.60;99.90
15900;DHT22;8048;50.644;6.184;2024-03-23T04:26:12;5.50;99.90
15900;DHT22;8048;50.644;6.184;2024-03-23T04:28:38;5.40;99.90
15900;DHT22;8048;50.644;6.184;2024-03-23T04:31:04;5.40;99.90
15900;DHT22;8048;50.644;6.184;2024-03-23T04:33:29;5.30;99.90
15900;DHT22;8048;50.644;6.184;2024-03-23T04:35:55;5.30;99.90
15900;DHT22;8048;50.644;6.184;2024-03-23T04:38:21;5.30;99.90
15900;DHT22;8048;50.644;6.184;2024-03-23T04:40:55;5.30;99.90
15900;DHT22;8048;50.644;6.184;2024-03-23T04:43:20;5.30;99.90
15900;DHT22;8048;50.644;6.184;2024-03-23T04:45:46;5.30;99.90
15900;DHT22;8048;50.644;6.184;2024-03-23T04:48:11;5.30;99.90
15900;DHT22;8048;50.644;6.184;2024-03-23T04:50:37;5.30;99.90
15900;DHT22;8048;50.644;6.184;2024-03-23T04:53:02;5.30;99.90
15900;DHT22;8048;50.644;6.184;2024-03-23T04:55:28;5.20;99.90
15900;DHT22;8048;50.644;6.184;2024-03-23T04:57:54;5.20;99.90
15900;DHT22;8048;50.644;6.184;2024-03-23T05:00:19;5.10;99.90
15900;DHT22;8048;50.644;6.184;2024-03-23T05:02:45;5.00;99.90
15900;DHT22;8048;50.644;6.184;2024-03-23T05:05:11;5.00;99.90
15900;DHT22;8048;50.644;6.184;2024-03-23T05:07:37;4.90;99.90
15900;DHT22;8048;50.644;6.184;2024-03-23T05:10:03;4.90;99.90
15900;DHT22;8048;50.644;6.184;2024-03-23T05:12:29;5.00;99.90
15900;DHT22;8048;50.644;6.184;2024-03-23T05:14:54;4.90;99.90
15900;DHT22;8048;50.644;6.184;2024-03-23T05:17:20;4.90;99.90
15900;DHT22;8048;50.644;6.184;2024-03-23T05:19:45;4.90;99.90
15900;DHT22;8048;50.644;6.184;2024-03-23T05:22:11;4.90;99.90
15900;DHT22;8048;50.644;6.184;2024-03-23T05:24:36;4.90;99.90
15900;DHT22;8048;50.644;6.184;2024-03-23T05:27:02;4.90;99.90
15900;DHT22;8048;50.644;6.184;2024-03-23T05:29:27;4.90;99.90
15900;DHT22;8048;50.644;6.184;2024-03-23T05:31:54;4.90;99.90
15900;DHT22;8048;50.644;6.184;2024-03-23T05:34:22;4.90;99.90
15900;DHT22;8048;50.644;6.184;2024-03-23T05:36:47;4.90;99.90
15900;DHT22;8048;50.644;6.184;2024-03-23T05:39:14;4.90;99.90
15900;DHT22;8048;50.644;6.184;2024-03-23T05:41:42;4.90;99.90
15900;DHT22;8048;50.644;6.184;2024-03-23T05:44:07;4.90;99.90
15900;DHT22;8048;50.644;6.184;2024-03-23T05:46:33;4.90;99.90
15900;DHT22;8048;50.644;6.184;2024-03-23T05:49:01;4.90;99.90
15900;DHT22;8048;50.644;6.184;2024-03-23T05:51:28;4.90;99.90
15900;DHT22;8048;50.644;6.184;2024-03-23T05:53:53;4.90;99.90
15900;DHT22;8048;50.644;6.184;2024-03-23T05:56:20;4.90;99.90
15900;DHT22;8048;50.644;6.184;2024-03-23T05:58:45;4.90;99.90
15900;DHT22;8048;50.644;6.184;2024-03-23T06:01:11;4.90;99.90
15900;DHT22;8048;50.644;6.184;2024-03-23T06:03:38;4.80;99.90
15900;DHT22;8048;50.644;6.184;2024-03-23T06:06:04;4.90;99.90
15900;DHT22;8048;50.644;6.184;2024-03-23T06:08:29;4.90;99.90
15900;DHT22;8048;50.644;6.184;2024-03-23T06:10:55;4.90;99.90
15900;DHT22;8048;50.644;6.184;2024-03-23T06:13:20;4.90;99.90
15900;DHT22;8048;50.644;6.184;2024-03-23T06:15:50;4.90;99.90
15900;DHT22;8048;50.644;6.184;2024-03-23T06:18:15;4.90;99.90
15900;DHT22;8048;50.644;6.184;2024-03-23T06:20:41;4.90;99.90
15900;DHT22;8048;50.644;6.184;2024-03-23T06:23:06;4.90;99.90
15900;DHT22;8048;50.644;6.184;2024-03-23T06:25:32;4.90;99.90
15900;DHT22;8048;50.644;6.184;2024-03-23T06:27:58;5.00;99.90
15900;DHT22;8048;50.644;6.184;2024-03-23T06:30:24;5.00;99.90
15900;DHT22;8048;50.644;6.184;2024-03-23T06:32:49;5.00;99.90
15900;DHT22;8048;50.644;6.184;2024-03-23T06:35:15;5.10;99.90
15900;DHT22;8048;50.644;6.184;2024-03-23T06:37:40;5.10;99.90
15900;DHT22;8048;50.644;6.184;2024-03-23T06:40:07;5.10;99.90
15900;DHT22;8048;50.644;6.184;2024-03-23T06:42:35;5.10;99.90
15900;DHT22;8048;50.644;6.184;2024-03-23T06:45:01;5.10;99.90
15900;DHT22;8048;50.644;6.184;2024-03-23T06:47:26;5.20;99.90
15900;DHT22;8048;50.644;6.184;2024-03-23T06:49:52;5.20;99.90
15900;DHT22;8048;50.644;6.184;2024-03-23T06:52:17;5.20;99.90
15900;DHT22;8048;50.644;6.184;2024-03-23T06:54:43;5.30;99.90
15900;DHT22;8048;50.644;6.184;2024-03-23T06:57:10;5.30;99.90
15900;DHT22;8048;50.644;6.184;2024-03-23T06:59:37;5.40;99.90
15900;DHT22;8048;50.644;6.184;2024-03-23T07:02:04;5.40;99.90
15900;DHT22;8048;50.644;6.184;2024-03-23T07:04:30;5.50;99.90
15900;DHT22;8048;50.644;6.184;2024-03-23T07:06:56;5.60;99.90
15900;DHT22;8048;50.644;6.184;2024-03-23T07:09:21;5.60;99.90
15900;DHT22;8048;50.644;6.184;2024-03-23T07:11:53;5.60;99.90
15900;DHT22;8048;50.644;6.184;2024-03-23T07:14:18;5.60;99.90
15900;DHT22;8048;50.644;6.184;2024-03-23T07:16:44;5.60;99.90
15900;DHT22;8048;50.644;6.184;2024-03-23T07:19:10;5.60;99.90
15900;DHT22;8048;50.644;6.184;2024-03-23T07:21:35;5.60;99.90
15900;DHT22;8048;50.644;6.184;2024-03-23T07:24:01;5.60;99.90
15900;DHT22;8048;50.644;6.184;2024-03-23T07:26:26;5.60;99.90
15900;DHT22;8048;50.644;6.184;2024-03-23T07:28:52;5.60;99.90
15900;DHT22;8048;50.644;6.184;2024-03-23T07:31:18;5.60;99.90
15900;DHT22;8048;50.644;6.184;2024-03-23T07:33:45;5.60;99.90
15900;DHT22;8048;50.644;6.184;2024-03-23T07:36:11;5.60;99.90
15900;DHT22;8048;50.644;6.184;2024-03-23T07:38:36;5.60;99.90
15900;DHT22;8048;50.644;6.184;2024-03-23T07:41:06;5.70;99.90
15900;DHT22;8048;50.644;6.184;2024-03-23T07:43:32;5.70;99.90
15900;DHT22;8048;50.644;6.184;2024-03-23T07:45:59;5.70;99.90
15900;DHT22;8048;50.644;6.184;2024-03-23T07:48:25;5.80;99.90
15900;DHT22;8048;50.644;6.184;2024-03-23T07:51:00;5.90;99.90
15900;DHT22;8048;50.644;6.184;2024-03-23T07:53:30;5.90;99.90
15900;DHT22;8048;50.644;6.184;2024-03-23T07:56:09;5.80;99.90
15900;DHT22;8048;50.644;6.184;2024-03-23T07:58:36;5.90;99.90
15900;DHT22;8048;50.644;6.184;2024-03-23T08:01:06;6.00;99.90
15900;DHT22;8048;50.644;6.184;2024-03-23T08:03:39;6.00;99.90
15900;DHT22;8048;50.644;6.184;2024-03-23T08:08:38;6.00;99.90
15900;DHT22;8048;50.644;6.184;2024-03-23T08:11:04;6.10;99.90
15900;DHT22;8048;50.644;6.184;2024-03-23T08:13:30;6.20;99.90
15900;DHT22;8048;50.644;6.184;2024-03-23T08:15:59;6.40;99.90
15900;DHT22;8048;50.644;6.184;2024-03-23T08:18:26;6.50;99.90
15900;DHT22;8048;50.644;6.184;2024-03-23T08:21:03;6.50;99.90
15900;DHT22;8048;50.644;6.184;2024-03-23T08:23:30;6.40;99.90
15900;DHT22;8048;50.644;6.184;2024-03-23T08:25:59;6.40;99.90
15900;DHT22;8048;50.644;6.184;2024-03-23T08:28:26;6.40;99.90
15900;DHT22;8048;50.644;6.184;2024-03-23T08:30:52;6.30;99.90
15900;DHT22;8048;50.644;6.184;2024-03-23T08:33:18;6.30;99.90
15900;DHT22;8048;50.644;6.184;2024-03-23T08:35:56;6.20;99.90
15900;DHT22;8048;50.644;6.184;2024-03-23T08:38:23;6.20;99.90
15900;DHT22;8048;50.644;6.184;2024-03-23T08:41:03;6.10;99.90
15900;DHT22;8048;50.644;6.184;2024-03-23T08:43:30;6.20;99.90
15900;DHT22;8048;50.644;6.184;2024-03-23T08:46:09;6.10;99.90
15900;DHT22;8048;50.644;6.184;2024-03-23T08:48:37;6.20;99.90
15900;DHT22;8048;50.644;6.184;2024-03-23T08:51:04;6.20;99.90
15900;DHT22;8048;50.644;6.184;2024-03-23T08:53:30;6.20;99.90
15900;DHT22;8048;50.644;6.184;2024-03-23T08:55:59;6.10;99.90
15900;DHT22;8048;50.644;6.184;2024-03-23T08:58:27;6.00;99.90
15900;DHT22;8048;50.644;6.184;2024-03-23T09:00:54;5.90;99.90
15900;DHT22;8048;50.644;6.184;2024-03-23T09:03:25;6.00;99.90
15900;DHT22;8048;50.644;6.184;2024-03-23T09:05:52;6.00;99.90
15900;DHT22;8048;50.644;6.184;2024-03-23T09:08:18;6.10;99.90
15900;DHT22;8048;50.644;6.184;2024-03-23T09:10:44;6.20;99.90
15900;DHT22;8048;50.644;6.184;2024-03-23T09:13:10;6.30;99.90
15900;DHT22;8048;50.644;6.184;2024-03-23T09:15:37;6.30;99.90
15900;DHT22;8048;50.644;6.184;2024-03-23T09:18:03;6.30;99.90
15900;DHT22;8048;50.644;6.184;2024-03-23T09:20:29;6.30;99.90
15900;DHT22;8048;50.644;6.184;2024-03-23T09:22:54;6.40;99.90
15900;DHT22;8048;50.644;6.184;2024-03-23T09:25:20;6.50;99.90
15900;DHT22;8048;50.644;6.184;2024-03-23T09:27:49;6.40;99.90
15900;DHT22;8048;50.644;6.184;2024-03-23T09:30:15;6.40;99.90
15900;DHT22;8048;50.644;6.184;2024-03-23T09:32:44;6.20;99.90
15900;DHT22;8048;50.644;6.184;2024-03-23T09:35:10;5.90;99.90
15900;DHT22;8048;50.644;6.184;2024-03-23T09:37:37;5.50;99.90
15900;DHT22;8048;50.644;6.184;2024-03-23T09:40:02;5.20;99.90
15900;DHT22;8048;50.644;6.184;2024-03-23T09:42:28;4.90;99.90
15900;DHT22;8048;50.644;6.184;2024-03-23T09:44:57;4.60;99.90
15900;DHT22;8048;50.644;6.184;2024-03-23T09:47:24;4.40;99.90
15900;DHT22;8048;50.644;6.184;2024-03-23T09:49:50;4.30;99.90
15900;DHT22;8048;50.644;6.184;2024-03-23T09:52:16;4.20;99.90
15900;DHT22;8048;50.644;6.184;2024-03-23T09:54:41;4.10;99.90
15900;DHT22;8048;50.644;6.184;2024-03-23T09:57:07;4.00;99.90
15900;DHT22;8048;50.644;6.184;2024-03-23T09:59:33;3.90;99.90
15900;DHT22;8048;50.644;6.184;2024-03-23T10:02:00;3.90;99.90
15900;DHT22;8048;50.644;6.184;2024-03-23T10:04:40;3.90;99.90
15900;DHT22;8048;50.644;6.184;2024-03-23T10:07:19;4.00;99.90
15900;DHT22;8048;50.644;6.184;2024-03-23T10:09:45;4.10;99.90
15900;DHT22;8048;50.644;6.184;2024-03-23T10:12:14;4.30;99.90
15900;DHT22;8048;50.644;6.184;2024-03-23T10:14:41;4.80;99.90
15900;DHT22;8048;50.644;6.184;2024-03-23T10:17:17;5.00;99.90
15900;DHT22;8048;50.644;6.184;2024-03-23T10:19:47;5.00;99.90
15900;DHT22;8048;50.644;6.184;2024-03-23T10:22:22;4.90;99.90
15900;DHT22;8048;50.644;6.184;2024-03-23T10:24:48;5.00;99.90
15900;DHT22;8048;50.644;6.184;2024-03-23T10:27:21;5.00;99.90
15900;DHT22;8048;50.644;6.184;2024-03-23T10:29:48;4.90;99.90
15900;DHT22;8048;50.644;6.184;2024-03-23T10:32:15;4.80;99.90
15900;DHT22;8048;50.644;6.184;2024-03-23T10:34:41;4.80;99.90
15900;DHT22;8048;50.644;6.184;2024-03-23T10:37:07;4.70;99.90
15900;DHT22;8048;50.644;6.184;2024-03-23T10:39:40;4.70;99.90
15900;DHT22;8048;50.644;6.184;2024-03-23T10:42:08;4.70;99.90
15900;DHT22;8048;50.644;6.184;2024-03-23T10:44:35;4.70;99.90
15900;DHT22;8048;50.644;6.184;2024-03-23T10:47:02;4.80;99.90
15900;DHT22;8048;50.644;6.184;2024-03-23T10:49:36;4.80;99.90
15900;DHT22;8048;50.644;6.184;2024-03-23T10:52:05;4.70;99.90
15900;DHT22;8048;50.644;6.184;2024-03-23T10:54:32;4.70;99.90
15900;DHT22;8048;50.644;6.184;2024-03-23T10:57:13;4.70;99.90
15900;DHT22;8048;50.644;6.184;2024-03-23T10:59:40;5.00;99.90
15900;DHT22;8048;50.644;6.184;2024-03-23T11:02:07;5.90;99.90
15900;DHT22;8048;50.644;6.184;2024-03-23T11:04:43;6.80;99.90
15900;DHT22;8048;50.644;6.184;2024-03-23T11:07:32;7.20;99.90
15900;DHT22;8048;50.644;6.184;2024-03-23T11:09:59;7.50;99.90
15900;DHT22;8048;50.644;6.184;2024-03-23T11:12:29;7.70;99.90
15900;DHT22;8048;50.644;6.184;2024-03-23T11:15:05;7.70;99.90
15900;DHT22;8048;50.644;6.184;2024-03-23T11:17:36;7.50;99.90
15900;DHT22;8048;50.644;6.184;2024-03-23T11:20:04;7.30;99.90
15900;DHT22;8048;50.644;6.184;2024-03-23T11:22:46;6.90;99.90
15900;DHT22;8048;50.644;6.184;2024-03-23T11:25:18;6.70;99.90
15900;DHT22;8048;50.644;6.184;2024-03-23T11:27:47;6.90;99.90
15900;DHT22;8048;50.644;6.184;2024-03-23T11:30:26;7.50;99.90
15900;DHT22;8048;50.644;6.184;2024-03-23T11:32:55;7.90;99.90
15900;DHT22;8048;50.644;6.184;2024-03-23T11:40:29;9.90;98.50
15900;DHT22;8048;50.644;6.184;2024-03-23T11:43:08;10.40;97.00
15900;DHT22;8048;50.644;6.184;2024-03-23T11:45:47;11.00;97.80
15900;DHT22;8048;50.644;6.184;2024-03-23T11:48:20;11.20;94.00
15900;DHT22;8048;50.644;6.184;2024-03-23T11:50:57;11.60;94.90
15900;DHT22;8048;50.644;6.184;2024-03-23T11:53:24;11.80;94.20
15900;DHT22;8048;50.644;6.184;2024-03-23T11:55:54;12.20;94.30
15900;DHT22;8048;50.644;6.184;2024-03-23T11:58:21;12.30;91.80
15900;DHT22;8048;50.644;6.184;2024-03-23T12:00:56;12.90;92.60
15900;DHT22;8048;50.644;6.184;2024-03-23T12:03:26;13.20;91.90
15900;DHT22;8048;50.644;6.184;2024-03-23T12:05:54;13.80;91.90
15900;DHT22;8048;50.644;6.184;2024-03-23T12:08:28;14.00;91.80
15900;DHT22;8048;50.644;6.184;2024-03-23T12:11:13;14.20;90.20
15900;DHT22;8048;50.644;6.184;2024-03-23T12:13:41;14.00;88.00
15900;DHT22;8048;50.644;6.184;2024-03-23T12:18:45;14.50;85.10
15900;DHT22;8048;50.644;6.184;2024-03-23T12:21:10;13.70;83.40
15900;DHT22;8048;50.644;6.184;2024-03-23T12:23:38;13.40;84.40
15900;DHT22;8048;50.644;6.184;2024-03-23T12:26:04;13.00;83.50
15900;DHT22;8048;50.644;6.184;2024-03-23T12:28:29;12.50;88.80
15900;DHT22;8048;50.644;6.184;2024-03-23T12:30:55;12.20;87.10
15900;DHT22;8048;50.644;6.184;2024-03-23T12:33:21;12.30;86.70
15900;DHT22;8048;50.644;6.184;2024-03-23T12:35:47;12.30;84.20
15900;DHT22;8048;50.644;6.184;2024-03-23T12:38:13;12.80;90.80
15900;DHT22;8048;50.644;6.184;2024-03-23T12:40:39;12.80;87.50
15900;DHT22;8048;50.644;6.184;2024-03-23T12:43:04;13.10;88.40
15900;DHT22;8048;50.644;6.184;2024-03-23T12:45:30;13.70;91.00
15900;DHT22;8048;50.644;6.184;2024-03-23T12:47:55;14.40;90.90
15900;DHT22;8048;50.644;6.184;2024-03-23T12:50:21;15.10;87.90
15900;DHT22;8048;50.644;6.184;2024-03-23T12:52:47;15.60;82.60
15900;DHT22;8048;50.644;6.184;2024-03-23T12:55:13;15.30;77.80
15900;DHT22;8048;50.644;6.184;2024-03-23T12:57:39;15.30;80.60
15900;DHT22;8048;50.644;6.184;2024-03-23T13:00:06;15.40;76.40
15900;DHT22;8048;50.644;6.184;2024-03-23T13:02:34;14.40;74.40
15900;DHT22;8048;50.644;6.184;2024-03-23T13:05:00;13.50;77.40
15900;DHT22;8048;50.644;6.184;2024-03-23T13:07:26;12.90;75.10
15900;DHT22;8048;50.644;6.184;2024-03-23T13:09:52;12.30;79.00
15900;DHT22;8048;50.644;6.184;2024-03-23T13:12:21;11.90;78.90
15900;DHT22;8048;50.644;6.184;2024-03-23T13:14:47;11.60;85.50
15900;DHT22;8048;50.644;6.184;2024-03-23T13:17:13;11.60;81.50
15900;DHT22;8048;50.644;6.184;2024-03-23T13:19:39;11.70;84.80
15900;DHT22;8048;50.644;6.184;2024-03-23T13:22:05;11.70;82.80
15900;DHT22;8048;50.644;6.184;2024-03-23T13:24:31;11.80;84.10
15900;DHT22;8048;50.644;6.184;2024-03-23T13:26:57;11.90;80.70
15900;DHT22;8048;50.644;6.184;2024-03-23T13:29:23;11.80;83.90
15900;DHT22;8048;50.644;6.184;2024-03-23T13:31:50;11.90;85.10
15900;DHT22;8048;50.644;6.184;2024-03-23T13:34:17;12.30;88.00
15900;DHT22;8048;50.644;6.184;2024-03-23T13:36:44;12.80;87.60
15900;DHT22;8048;50.644;6.184;2024-03-23T13:39:10;13.40;86.70
15900;DHT22;8048;50.644;6.184;2024-03-23T13:41:40;13.10;81.60
15900;DHT22;8048;50.644;6.184;2024-03-23T13:44:06;12.70;82.30
15900;DHT22;8048;50.644;6.184;2024-03-23T13:46:33;12.20;86.90
15900;DHT22;8048;50.644;6.184;2024-03-23T13:48:58;11.90;86.30
15900;DHT22;8048;50.644;6.184;2024-03-23T13:51:24;11.20;86.40
15900;DHT22;8048;50.644;6.184;2024-03-23T13:53:55;10.80;90.60
15900;DHT22;8048;50.644;6.184;2024-03-23T13:56:22;10.60;90.30
15900;DHT22;8048;50.644;6.184;2024-03-23T13:58:48;10.40;90.40
15900;DHT22;8048;50.644;6.184;2024-03-23T14:01:15;10.00;90.40
15900;DHT22;8048;50.644;6.184;2024-03-23T14:03:41;9.60;92.00
15900;DHT22;8048;50.644;6.184;2024-03-23T14:06:08;9.40;92.50
15900;DHT22;8048;50.644;6.184;2024-03-23T14:08:35;9.40;94.10
15900;DHT22;8048;50.644;6.184;2024-03-23T14:11:02;9.30;94.00
15900;DHT22;8048;50.644;6.184;2024-03-23T14:13:29;8.50;91.10
15900;DHT22;8048;50.644;6.184;2024-03-23T14:15:54;7.90;92.50
15900;DHT22;8048;50.644;6.184;2024-03-23T14:18:20;7.90;94.10
15900;DHT22;8048;50.644;6.184;2024-03-23T14:20:48;7.60;94.10
15900;DHT22;8048;50.644;6.184;2024-03-23T14:23:13;7.50;95.00
15900;DHT22;8048;50.644;6.184;2024-03-23T14:25:39;7.60;96.70
15900;DHT22;8048;50.644;6.184;2024-03-23T14:28:05;7.50;96.20
15900;DHT22;8048;50.644;6.184;2024-03-23T14:30:30;7.50;96.50
15900;DHT22;8048;50.644;6.184;2024-03-23T14:32:57;7.40;97.00
15900;DHT22;8048;50.644;6.184;2024-03-23T14:35:22;7.40;97.90
15900;DHT22;8048;50.644;6.184;2024-03-23T14:37:49;7.50;98.30
15900;DHT22;8048;50.644;6.184;2024-03-23T14:40:14;7.80;98.00
15900;DHT22;8048;50.644;6.184;2024-03-23T14:42:40;8.30;98.60
15900;DHT22;8048;50.644;6.184;2024-03-23T14:45:07;9.10;99.20
15900;DHT22;8048;50.644;6.184;2024-03-23T14:47:33;9.60;96.00
15900;DHT22;8048;50.644;6.184;2024-03-23T14:49:58;10.00;94.80
15900;DHT22;8048;50.644;6.184;2024-03-23T14:52:24;10.40;92.70
15900;DHT22;8048;50.644;6.184;2024-03-23T14:54:50;10.70;92.60
15900;DHT22;8048;50.644;6.184;2024-03-23T14:57:15;10.80;91.40
15900;DHT22;8048;50.644;6.184;2024-03-23T14:59:41;11.00;93.20
15900;DHT22;8048;50.644;6.184;2024-03-23T15:02:07;10.70;90.30
15900;DHT22;8048;50.644;6.184;2024-03-23T15:04:33;10.40;90.70
15900;DHT22;8048;50.644;6.184;2024-03-23T15:06:59;10.00;90.70
15900;DHT22;8048;50.644;6.184;2024-03-23T15:09:25;9.90;93.30
15900;DHT22;8048;50.644;6.184;2024-03-23T15:11:50;9.90;92.70
15900;DHT22;8048;50.644;6.184;2024-03-23T15:14:16;9.70;91.20
15900;DHT22;8048;50.644;6.184;2024-03-23T15:16:42;9.50;92.20
15900;DHT22;8048;50.644;6.184;2024-03-23T15:19:08;9.40;92.90
15900;DHT22;8048;50.644;6.184;2024-03-23T15:21:34;9.10;92.10
15900;DHT22;8048;50.644;6.184;2024-03-23T15:23:59;8.90;93.20
15900;DHT22;8048;50.644;6.184;2024-03-23T15:26:25;8.70;93.80
15900;DHT22;8048;50.644;6.184;2024-03-23T15:28:51;8.70;94.40
15900;DHT22;8048;50.644;6.184;2024-03-23T15:31:22;8.50;93.30
15900;DHT22;8048;50.644;6.184;2024-03-23T15:33:48;7.90;93.40
15900;DHT22;8048;50.644;6.184;2024-03-23T15:36:14;7.50;94.10
15900;DHT22;8048;50.644;6.184;2024-03-23T15:38:39;7.10;94.70
15900;DHT22;8048;50.644;6.184;2024-03-23T15:41:05;6.70;94.90
15900;DHT22;8048;50.644;6.184;2024-03-23T15:43:31;6.50;96.20
15900;DHT22;8048;50.644;6.184;2024-03-23T15:46:04;6.30;96.50
15900;DHT22;8048;50.644;6.184;2024-03-23T15:48:30;6.20;97.40
15900;DHT22;8048;50.644;6.184;2024-03-23T15:51:02;6.30;98.30
15900;DHT22;8048;50.644;6.184;2024-03-23T15:53:28;6.20;98.40
15900;DHT22;8048;50.644;6.184;2024-03-23T15:55:55;6.10;98.70
15900;DHT22;8048;50.644;6.184;2024-03-23T15:58:24;6.10;98.80
15900;DHT22;8048;50.644;6.184;2024-03-23T16:00:59;6.10;99.10
15900;DHT22;8048;50.644;6.184;2024-03-23T16:03:26;5.90;99.10
15900;DHT22;8048;50.644;6.184;2024-03-23T16:06:04;6.00;99.70
15900;DHT22;8048;50.644;6.184;2024-03-23T16:08:31;6.30;99.90
15900;DHT22;8048;50.644;6.184;2024-03-23T16:11:07;6.40;99.40
15900;DHT22;8048;50.644;6.184;2024-03-23T16:13:34;6.50;99.30
15900;DHT22;8048;50.644;6.184;2024-03-23T16:16:04;6.60;98.50
15900;DHT22;8048;50.644;6.184;2024-03-23T16:18:33;6.80;98.40
15900;DHT22;8048;50.644;6.184;2024-03-23T16:21:01;6.90;98.40
15900;DHT22;8048;50.644;6.184;2024-03-23T16:23:27;6.70;97.70
15900;DHT22;8048;50.644;6.184;2024-03-23T16:25:54;6.60;97.50
15900;DHT22;8048;50.644;6.184;2024-03-23T16:28:27;6.60;98.70
15900;DHT22;8048;50.644;6.184;2024-03-23T16:31:04;6.50;98.50
15900;DHT22;8048;50.644;6.184;2024-03-23T16:33:32;6.40;98.50
15900;DHT22;8048;50.644;6.184;2024-03-23T16:36:05;6.20;99.20
15900;DHT22;8048;50.644;6.184;2024-03-23T16:38:32;6.20;99.20
15900;DHT22;8048;50.644;6.184;2024-03-23T16:41:06;6.00;99.20
15900;DHT22;8048;50.644;6.184;2024-03-23T16:43:35;6.00;99.90
15900;DHT22;8048;50.644;6.184;2024-03-23T16:46:06;6.00;99.90
15900;DHT22;8048;50.644;6.184;2024-03-23T16:48:33;6.00;99.90
15900;DHT22;8048;50.644;6.184;2024-03-23T16:51:02;6.00;99.90
15900;DHT22;8048;50.644;6.184;2024-03-23T16:53:32;6.00;99.90
15900;DHT22;8048;50.644;6.184;2024-03-23T16:56:01;5.90;99.90
15900;DHT22;8048;50.644;6.184;2024-03-23T16:58:29;5.80;99.90
15900;DHT22;8048;50.644;6.184;2024-03-23T17:03:30;5.70;99.90
15900;DHT22;8048;50.644;6.184;2024-03-23T17:05:56;5.70;99.90